Antelope, Montana
Current Conditions -  °F | °C
As of 2:52 AM on Monday 26 Jan 2015 (Local Time) from KISN Reporting Station
Overcast Overcast  
Wind Chill: 32°   Ceiling: 12000
Heat Index: 38°   Visibility: 10mi
Dew Point: 32°   Wind: 8mph
Humidity: 79%   Direction: 220°SW
Pressure: 29.89"   Gusts: NA
Location:  48.69°N, 104.46°W
Report Text: KISN 260952Z AUTO 22007KT 10SM OVC120 03/00 A2989 RMK AO2 SLP139 T00330000
Loading
Personal Weather Stations






























Interactive Weather Map New forecast layout! Learn more

10-Day Weather Forecast

Advertisements
Track Severe Weather on mobile